Time;durP1;ratioP1;P1;durP2;ratioP2;P2;SDS_P1;SDS_P2;PMS_P1;PMS_P2;Temp;Humidity;BMP_temperature;BMP_pressure;BME280_temperature;BME280_humidity;BME280_pressure;Samples;Min_cycle;Max_cycle;Signal;HPM_P1;HPM_P2
2023/01/26 00:01:26;;;;;;;35.30;18.42;;;;;;;0.19;100.00;101673.56;5032650;28;20291;-62
2023/01/26 00:03:54;;;;;;;32.25;17.67;;;;;;;0.12;100.00;101664.06;5037455;28;20493;-63
2023/01/26 00:06:22;;;;;;;33.90;17.60;;;;;;;0.12;100.00;101664.06;5016195;28;20049;-63
2023/01/26 00:08:51;;;;;;;36.88;19.27;;;;;;;0.09;100.00;101664.03;5014887;28;20058;-61
2023/01/26 00:11:23;;;;;;;34.50;17.02;;;;;;;0.04;100.00;101658.84;5035904;28;20048;-61
2023/01/26 00:13:50;;;;;;;33.85;17.85;;;;;;;0.05;100.00;101663.19;5037493;28;20067;-63
2023/01/26 00:16:18;;;;;;;33.28;18.20;;;;;;;0.05;100.00;101668.38;5038840;28;20107;-62
2023/01/26 00:18:45;;;;;;;38.75;18.70;;;;;;;0.10;100.00;101658.88;5043482;28;20246;-63
2023/01/26 00:21:20;;;;;;;34.10;18.73;;;;;;;0.14;100.00;101663.19;5031628;28;20057;-62
2023/01/26 00:23:48;;;;;;;32.50;18.33;;;;;;;0.20;100.00;101650.25;5021411;28;20595;-63
2023/01/26 00:26:23;;;;;;;34.85;18.58;;;;;;;0.15;100.00;101645.94;5022718;28;20067;-63
2023/01/26 00:28:51;;;;;;;35.25;19.08;;;;;;;0.09;100.00;101644.22;5037862;28;20141;-63
2023/01/26 00:31:24;;;;;;;35.53;19.15;;;;;;;0.02;100.00;101639.88;5034798;28;20172;-63
2023/01/26 00:33:55;;;;;;;36.33;19.27;;;;;;;0.01;100.00;101630.41;5032331;28;20067;-62
2023/01/26 00:36:22;;;;;;;38.17;20.98;;;;;;;0.04;100.00;101632.97;5031143;28;20136;-62
2023/01/26 00:38:49;;;;;;;35.38;18.73;;;;;;;0.05;100.00;101629.53;5040466;28;20041;-62
2023/01/26 00:44:02;;;;;;;;;;;;;;;0.11;100.00;101623.50;5026185;28;20049;-62
2023/01/26 00:46:30;;;;;;;31.95;18.85;;;;;;;0.14;100.00;101620.91;5030452;28;19956;-62
2023/01/26 00:48:59;;;;;;;34.15;19.17;;;;;;;0.14;100.00;101624.38;5033144;28;20131;-63
2023/01/26 00:51:26;;;;;;;36.35;20.88;;;;;;;0.08;100.00;101631.25;5027542;28;20463;-63
2023/01/26 00:53:54;;;;;;;35.40;19.67;;;;;;;-0.02;100.00;101615.72;5035723;28;20056;-63
2023/01/26 00:56:21;;;;;;;31.67;18.63;;;;;;;0.04;100.00;101620.03;5038421;28;20496;-63
2023/01/26 00:58:48;;;;;;;33.35;18.80;;;;;;;-0.01;100.00;101617.44;5030261;28;20061;-62
2023/01/26 01:01:15;;;;;;;33.80;19.55;;;;;;;-0.02;100.00;101613.13;5011148;28;20399;-63
2023/01/26 01:03:42;;;;;;;34.92;20.10;;;;;;;-0.02;100.00;101620.03;5030725;28;20043;-63
2023/01/26 01:06:09;;;;;;;32.92;19.30;;;;;;;-0.02;100.00;101617.44;5034386;28;20139;-62
2023/01/26 01:08:37;;;;;;;34.60;20.08;;;;;;;-0.05;100.00;101615.69;5009502;28;20045;-62
2023/01/26 01:11:06;;;;;;;35.60;19.77;;;;;;;0.01;100.00;101619.19;5028332;28;20242;-62
2023/01/26 01:13:33;;;;;;;38.85;19.77;;;;;;;0.05;100.00;101611.41;5026965;28;20037;-62
2023/01/26 01:16:04;;;;;;;35.70;19.50;;;;;;;0.03;100.00;101614.84;5032682;28;20059;-63
2023/01/26 01:18:32;;;;;;;32.92;18.67;;;;;;;0.01;100.00;101614.00;5029878;28;20140;-62
2023/01/26 01:20:59;;;;;;;33.67;18.67;;;;;;;-0.05;100.00;101613.13;5033315;28;20053;-63
2023/01/26 01:23:28;;;;;;;31.98;18.55;;;;;;;-0.07;100.00;101606.22;5033408;28;20060;-62
2023/01/26 01:25:56;;;;;;;28.85;17.27;;;;;;;-0.05;100.00;101604.50;5037534;28;20052;-62
2023/01/26 01:28:23;;;;;;;28.92;16.40;;;;;;;-0.09;100.00;101600.16;5016901;28;20148;-63
2023/01/26 01:30:50;;;;;;;29.38;17.30;;;;;;;-0.06;100.00;101590.69;5032650;28;20076;-62
2023/01/26 01:33:18;;;;;;;34.50;19.00;;;;;;;-0.06;100.00;101590.69;5035081;28;20049;-62
2023/01/26 01:35:56;;;;;;;30.00;17.92;;;;;;;-0.03;100.00;101598.47;5025147;28;20045;-63
2023/01/26 01:38:23;;;;;;;31.73;17.80;;;;;;;-0.02;100.00;101592.41;5031084;28;20136;-61
2023/01/26 01:40:51;;;;;;;33.13;18.52;;;;;;;0.02;100.00;101593.28;5012947;28;20061;-62
2023/01/26 01:43:18;;;;;;;31.77;17.20;;;;;;;-0.01;100.00;101590.69;5014105;28;20072;-62
2023/01/26 01:45:47;;;;;;;27.52;16.50;;;;;;;0.01;100.00;101586.41;4996719;28;20067;-62
2023/01/26 01:48:19;;;;;;;30.00;17.40;;;;;;;-0.01;100.00;101588.97;5013494;28;20050;-62
2023/01/26 01:50:48;;;;;;;31.20;16.98;;;;;;;0.03;100.00;101594.16;5027157;28;20137;-63
2023/01/26 01:53:24;;;;;;;28.02;16.50;;;;;;;-0.01;100.00;101588.09;5001790;28;20129;-60
2023/01/26 01:55:57;;;;;;;31.65;18.17;;;;;;;0.00;100.00;101589.84;5023170;28;20128;-63
2023/01/26 01:58:26;;;;;;;31.23;16.17;;;;;;;-0.07;100.00;101581.19;5015614;28;20073;-63
2023/01/26 02:00:53;;;;;;;26.92;15.23;;;;;;;-0.10;100.00;101578.59;5013658;28;20132;-62
2023/01/26 02:03:21;;;;;;;27.73;15.25;;;;;;;-0.04;100.00;101572.59;5016431;28;20148;-61
2023/01/26 02:05:55;;;;;;;27.75;16.75;;;;;;;-0.08;100.00;101573.44;5037246;28;20276;-62
2023/01/26 02:08:26;;;;;;;27.20;16.13;;;;;;;-0.09;100.00;101571.69;5011395;28;20045;-62
2023/01/26 02:10:56;;;;;;;28.58;16.60;;;;;;;-0.11;100.00;101557.91;5012920;28;20057;-62
2023/01/26 02:13:23;;;;;;;32.95;19.20;;;;;;;-0.09;100.00;101564.81;5029310;28;20498;-62
2023/01/26 02:15:51;;;;;;;32.67;17.77;;;;;;;-0.03;100.00;101559.63;5010311;28;20057;-62
2023/01/26 02:18:18;;;;;;;35.28;19.48;;;;;;;-0.05;100.00;101558.75;5019183;28;20095;-62
2023/01/26 02:20:50;;;;;;;35.28;17.45;;;;;;;-0.06;100.00;101557.03;5039491;28;20049;-63
2023/01/26 02:23:19;;;;;;;34.58;18.30;;;;;;;-0.12;100.00;101549.28;5016571;28;20053;-63
2023/01/26 02:25:52;;;;;;;35.15;18.80;;;;;;;-0.14;100.00;101542.38;5021857;28;20223;-63
2023/01/26 02:28:23;;;;;;;32.67;19.08;;;;;;;-0.12;100.00;101545.84;5026344;28;20053;-62
2023/01/26 02:30:52;;;;;;;32.67;18.48;;;;;;;-0.13;100.00;101537.22;5009812;28;20057;-63
2023/01/26 02:33:19;;;;;;;35.50;18.30;;;;;;;-0.10;100.00;101533.75;5017273;28;20079;-61
2023/01/26 02:35:46;;;;;;;41.15;20.13;;;;;;;-0.02;100.00;101525.13;5033389;28;20049;-63
2023/01/26 02:38:13;;;;;;;32.63;18.08;;;;;;;0.05;100.00;101519.94;5019369;28;20053;-61
2023/01/26 02:40:52;;;;;;;41.63;19.60;;;;;;;0.02;100.00;101518.22;5007315;28;20048;-62
2023/01/26 02:43:20;;;;;;;33.65;18.33;;;;;;;0.01;100.00;101515.63;5014839;28;20085;-63
2023/01/26 02:45:48;;;;;;;38.05;19.55;;;;;;;0.04;100.00;101518.19;5020848;28;20045;-63
2023/01/26 02:49:45;;;;;;;34.65;17.88;;;;;;;0.00;100.00;101514.78;5018012;28;20060;-59
2023/01/26 02:51:02;;;;;;;37.45;19.52;;;;;;;0.04;100.00;101507.84;5017152;28;20534;-61
2023/01/26 02:53:30;;;;;;;41.20;21.17;;;;;;;0.03;100.00;101513.91;5012934;28;20081;-62
2023/01/26 02:55:57;;;;;;;37.35;20.10;;;;;;;0.03;100.00;101506.13;5007861;28;20059;-61
2023/01/26 02:58:24;;;;;;;34.42;19.00;;;;;;;-0.03;100.00;101507.88;5006270;28;20054;-61
2023/01/26 03:00:52;;;;;;;34.88;18.73;;;;;;;-0.02;100.00;101509.59;5009718;28;20422;-60
2023/01/26 03:03:40;;;;;;;41.58;19.92;;;;;;;-0.05;100.00;101509.56;4997917;28;20141;-62
2023/01/26 03:06:09;;;;;;;36.35;20.05;;;;;;;-0.03;100.00;101510.47;5029408;28;20155;-61
2023/01/26 03:08:37;;;;;;;38.15;20.98;;;;;;;-0.03;100.00;101510.47;5005991;28;20548;-62
2023/01/26 03:11:05;;;;;;;43.75;19.95;;;;;;;0.02;100.00;101509.59;5013676;28;20049;-61
2023/01/26 03:13:33;;;;;;;38.38;19.23;;;;;;;0.03;100.00;101508.72;5013943;28;20049;-62
2023/01/26 03:16:05;;;;;;;42.47;19.65;;;;;;;0.09;100.00;101508.69;4992483;28;20685;-61
2023/01/26 03:29:41;;;;;;;37.03;18.75;;;;;;;-0.11;100.00;101511.31;5021418;28;20060;-62
2023/01/26 03:32:09;;;;;;;35.58;19.05;;;;;;;-0.10;100.00;101505.28;5016039;28;20087;-62
2023/01/26 03:34:36;;;;;;;37.85;18.90;;;;;;;-0.06;100.00;101502.69;5015262;28;20033;-63
2023/01/26 03:37:03;;;;;;;40.45;19.92;;;;;;;0.01;100.00;101493.19;5018910;28;20057;-62
2023/01/26 03:56:32;;;;;;;37.92;20.17;;;;;;;0.09;100.00;101508.69;4994713;28;20041;-63
2023/01/26 03:59:07;;;;;;;35.42;19.50;;;;;;;0.03;100.00;101503.53;4999690;28;20419;-63
2023/01/26 04:01:39;;;;;;;35.40;18.40;;;;;;;0.03;100.00;101509.56;5012568;28;20081;-62
2023/01/26 04:09:38;;;;;;;35.60;18.88;;;;;;;0.17;100.00;101501.78;5037912;28;20011;-63
2023/01/26 04:12:06;;;;;;;31.90;17.83;;;;;;;0.22;100.00;101507.81;5027830;28;20133;-62
2023/01/26 04:22:51;;;;;;;29.08;16.98;;;;;;;0.15;100.00;101477.63;5022697;28;20196;-63
2023/01/26 04:25:20;;;;;;;30.95;17.85;;;;;;;0.17;100.00;101476.75;5024515;28;20051;-63
2023/01/26 04:27:47;;;;;;;30.05;17.95;;;;;;;0.19;100.00;101469.00;5039264;28;20049;-63
2023/01/26 04:30:15;;;;;;;33.88;18.15;;;;;;;0.21;100.00;101472.44;5023900;28;20049;-63
2023/01/26 04:32:50;;;;;;;29.88;17.27;;;;;;;0.13;100.00;101469.00;5091800;27;21216;-63
2023/01/26 04:35:17;;;;;;;28.70;16.80;;;;;;;0.06;100.00;101469.91;5081016;28;20147;-63
2023/01/26 04:37:44;;;;;;;26.88;16.20;;;;;;;0.05;100.00;101470.75;5077686;28;20052;-63
2023/01/26 04:40:12;;;;;;;31.95;18.00;;;;;;;0.08;100.00;101470.75;5069985;28;20056;-61
2023/01/26 04:42:39;;;;;;;27.10;15.98;;;;;;;0.02;100.00;101466.44;5080665;28;20101;-63
2023/01/26 04:45:09;;;;;;;29.15;17.02;;;;;;;0.00;100.00;101465.59;5080696;28;20207;-63
2023/01/26 04:47:36;;;;;;;29.25;17.30;;;;;;;0.07;100.00;101464.69;5072240;28;20164;-63
2023/01/26 04:50:03;;;;;;;31.08;17.30;;;;;;;0.11;100.00;101465.56;5083981;28;20048;-62
2023/01/26 04:52:31;;;;;;;29.88;18.77;;;;;;;0.11;100.00;101465.56;5085864;28;20497;-63
2023/01/26 04:54:58;;;;;;;30.88;18.13;;;;;;;0.10;100.00;101462.13;5079941;28;20060;-63
2023/01/26 04:57:25;;;;;;;29.45;18.20;;;;;;;0.12;100.00;101454.34;5078038;28;20349;-63
2023/01/26 04:59:52;;;;;;;32.45;18.40;;;;;;;0.21;100.00;101450.00;5076991;28;20428;-62
2023/01/26 05:02:19;;;;;;;28.38;17.70;;;;;;;0.18;100.00;101457.78;5079094;28;20317;-62
2023/01/26 05:04:46;;;;;;;28.60;16.67;;;;;;;0.12;100.00;101451.75;5077523;28;20157;-63
2023/01/26 05:07:13;;;;;;;29.38;17.08;;;;;;;0.10;100.00;101456.09;5076545;28;20048;-63
2023/01/26 05:09:40;;;;;;;23.30;15.23;;;;;;;0.12;100.00;101444.84;5080306;28;20056;-63
2023/01/26 05:14:53;;;;;;;25.17;15.23;;;;;;;0.16;100.00;101443.97;5079683;28;20403;-63
2023/01/26 05:17:21;;;;;;;23.40;14.95;;;;;;;0.16;100.00;101446.56;5079288;28;20062;-62
2023/01/26 05:19:48;;;;;;;22.42;13.40;;;;;;;0.16;100.00;101449.16;5074565;28;20098;-63
2023/01/26 05:22:15;;;;;;;25.95;14.80;;;;;;;0.16;100.00;101449.16;5080542;28;20600;-62
2023/01/26 05:24:42;;;;;;;24.88;14.45;;;;;;;0.14;100.00;101445.72;5073870;28;20082;-62
2023/01/26 05:27:21;;;;;;;22.80;14.00;;;;;;;0.17;100.00;101457.78;5076385;28;20095;-62
2023/01/26 05:29:49;;;;;;;23.77;14.45;;;;;;;0.16;100.00;101451.72;5064203;28;20087;-62
2023/01/26 05:32:17;;;;;;;22.63;14.57;;;;;;;0.17;100.00;101445.69;5069058;28;20040;-62
2023/01/26 05:34:44;;;;;;;21.08;14.00;;;;;;;0.11;100.00;101445.72;5076893;28;20053;-62
2023/01/26 05:37:11;;;;;;;25.50;16.73;;;;;;;0.07;100.00;101438.81;5071710;28;20415;-62
2023/01/26 05:39:41;;;;;;;27.20;15.55;;;;;;;0.05;100.00;101444.88;5074929;28;20057;-61
2023/01/26 05:42:10;;;;;;;30.75;17.38;;;;;;;0.04;100.00;101448.31;5070801;28;20049;-61
2023/01/26 05:44:38;;;;;;;31.38;17.55;;;;;;;0.04;100.00;101451.75;5055521;28;20175;-62
2023/01/26 05:47:05;;;;;;;32.03;18.13;;;;;;;0.04;100.00;101450.91;5061291;28;20045;-61
2023/01/26 05:49:32;;;;;;;29.40;16.65;;;;;;;0.08;100.00;101455.19;5056681;28;20158;-61
2023/01/26 05:52:00;;;;;;;31.70;18.38;;;;;;;0.05;100.00;101455.25;5059944;28;20575;-61
2023/01/26 05:54:27;;;;;;;31.27;18.88;;;;;;;0.10;100.00;101453.50;5056022;28;20417;-62
2023/01/26 05:56:56;;;;;;;34.28;19.05;;;;;;;0.11;100.00;101463.84;5062217;28;20051;-61
2023/01/26 05:59:23;;;;;;;37.05;19.98;;;;;;;0.03;100.00;101456.94;5056831;28;20056;-62
2023/01/26 06:01:50;;;;;;;33.80;20.17;;;;;;;-0.03;100.00;101455.25;5063081;28;20124;-62
2023/01/26 06:04:17;;;;;;;34.58;20.27;;;;;;;-0.03;100.00;101456.09;5060372;28;20064;-61
2023/01/26 06:06:45;;;;;;;34.80;19.00;;;;;;;0.00;100.00;101460.44;5058530;28;20044;-61
2023/01/26 06:09:12;;;;;;;31.15;17.42;;;;;;;0.02;100.00;101457.81;5056912;28;20049;-61
2023/01/26 06:11:39;;;;;;;32.03;17.92;;;;;;;0.05;100.00;101461.28;5058732;28;21181;-63
2023/01/26 06:14:06;;;;;;;33.88;18.15;;;;;;;0.05;100.00;101450.91;5057918;28;20144;-60
2023/01/26 06:16:33;;;;;;;32.22;17.80;;;;;;;0.03;100.00;101455.22;5054187;28;20084;-62
2023/01/26 06:19:01;;;;;;;29.55;16.58;;;;;;;0.06;100.00;101460.41;5057619;28;20048;-61
2023/01/26 06:21:28;;;;;;;35.10;19.27;;;;;;;0.08;100.00;101466.41;5059913;28;20071;-62
2023/01/26 06:23:55;;;;;;;27.80;16.38;;;;;;;0.05;100.00;101463.84;5060315;28;20044;-63
2023/01/26 06:26:25;;;;;;;29.40;17.63;;;;;;;-0.01;100.00;101463.84;5060151;28;20118;-62
2023/01/26 06:28:53;;;;;;;27.73;15.85;;;;;;;-0.05;100.00;101462.13;5054978;28;20060;-62
2023/01/26 06:31:22;;;;;;;33.38;17.85;;;;;;;-0.08;100.00;101464.75;5056528;28;20143;-61
2023/01/26 06:33:50;;;;;;;31.15;16.73;;;;;;;-0.10;100.00;101462.13;5058138;28;20537;-63
2023/01/26 06:36:17;;;;;;;28.80;15.77;;;;;;;-0.13;100.00;101450.97;5061716;28;20044;-62
2023/01/26 06:38:46;;;;;;;28.63;15.68;;;;;;;0.04;100.00;101458.66;5056726;28;20041;-62
2023/01/26 06:41:14;;;;;;;30.27;15.23;;;;;;;-0.05;100.00;101464.72;5072779;28;20056;-63
2023/01/26 06:43:46;;;;;;;28.98;16.33;;;;;;;-0.17;100.00;101460.44;5055389;28;20147;-63
2023/01/26 06:46:14;;;;;;;28.73;16.58;;;;;;;-0.22;100.00;101466.50;5052444;28;20610;-63
2023/01/26 06:48:42;;;;;;;24.20;14.50;;;;;;;-0.27;100.00;101461.28;5055161;28;20071;-62
2023/01/26 06:51:15;;;;;;;22.30;13.52;;;;;;;-0.31;100.00;101470.81;5054081;28;20074;-63
2023/01/26 06:53:46;;;;;;;26.33;14.70;;;;;;;-0.30;100.00;101472.53;5055606;28;20051;-61
2023/01/26 06:56:14;;;;;;;23.67;14.73;;;;;;;-0.29;100.00;101478.56;5047589;28;20061;-60
2023/01/26 06:58:42;;;;;;;26.20;14.65;;;;;;;-0.26;100.00;101476.84;5049782;28;20056;-59
2023/01/26 07:01:13;;;;;;;31.55;16.67;;;;;;;-0.28;100.00;101469.94;5049756;28;20060;-60
2023/01/26 07:03:41;;;;;;;30.25;15.98;;;;;;;-0.32;100.00;101468.19;5059721;28;20147;-61
2023/01/26 07:06:12;;;;;;;31.02;17.20;;;;;;;-0.28;100.00;101463.03;5064145;28;20047;-63
2023/01/26 07:08:39;;;;;;;30.98;15.93;;;;;;;-0.34;100.00;101462.19;5063608;28;20464;-61
2023/01/26 07:11:06;;;;;;;30.80;16.33;;;;;;;-0.34;100.00;101462.19;5063085;28;20304;-62
2023/01/26 07:13:35;;;;;;;33.53;16.77;;;;;;;-0.37;100.00;101468.22;5064439;28;20049;-62
2023/01/26 07:16:04;;;;;;;30.60;15.60;;;;;;;-0.34;100.00;101470.81;5060330;28;20511;-62
2023/01/26 07:18:32;;;;;;;31.77;15.95;;;;;;;-0.27;100.00;101469.94;5061475;28;20057;-62
2023/01/26 07:21:01;;;;;;;30.63;15.52;;;;;;;-0.23;100.00;101470.78;5062112;28;20264;-62
2023/01/26 07:23:29;;;;;;;30.50;15.52;;;;;;;-0.17;100.00;101470.78;5063618;28;20048;-60
2023/01/26 07:26:02;;;;;;;28.38;15.52;;;;;;;-0.22;100.00;101475.13;5060767;28;20087;-61
2023/01/26 07:28:30;;;;;;;28.65;15.57;;;;;;;-0.21;100.00;101468.22;5062872;28;20053;-62
2023/01/26 07:30:57;;;;;;;29.13;15.40;;;;;;;-0.25;100.00;101472.53;5058358;28;20508;-62
2023/01/26 07:33:25;;;;;;;30.90;15.88;;;;;;;-0.28;100.00;101469.94;5064527;28;20143;-62
2023/01/26 07:35:52;;;;;;;31.45;15.93;;;;;;;-0.35;100.00;101474.25;5057446;28;20400;-62
2023/01/26 07:38:20;;;;;;;31.17;17.33;;;;;;;-0.35;100.00;101466.50;5060992;28;20067;-61
2023/01/26 07:40:47;;;;;;;29.88;15.00;;;;;;;-0.32;100.00;101474.25;5058008;28;20049;-62
2023/01/26 07:43:15;;;;;;;30.65;15.35;;;;;;;-0.33;100.00;101474.25;5062516;28;20051;-62
2023/01/26 07:45:46;;;;;;;32.22;15.98;;;;;;;-0.36;100.00;101469.06;5054995;28;20094;-62
2023/01/26 07:48:14;;;;;;;27.98;14.75;;;;;;;-0.34;100.00;101478.56;5062059;28;20126;-62
2023/01/26 07:50:42;;;;;;;30.77;16.00;;;;;;;-0.34;100.00;101468.22;5062292;28;20052;-61
2023/01/26 07:53:11;;;;;;;30.00;15.38;;;;;;;-0.36;100.00;101469.97;5058447;28;20262;-62
2023/01/26 07:55:38;;;;;;;28.08;14.55;;;;;;;-0.41;100.00;101471.66;5058222;28;20325;-63
2023/01/26 07:58:06;;;;;;;31.38;15.27;;;;;;;-0.46;100.00;101477.69;5061799;28;20148;-63
2023/01/26 08:00:33;;;;;;;30.20;15.73;;;;;;;-0.45;100.00;101477.72;5057666;28;20428;-63
2023/01/26 08:03:00;;;;;;;29.27;15.52;;;;;;;-0.44;100.00;101484.59;5055950;28;20523;-62
2023/01/26 08:05:27;;;;;;;27.73;14.85;;;;;;;-0.41;100.00;101482.00;5063319;28;20062;-61
2023/01/26 08:07:58;;;;;;;26.30;14.65;;;;;;;-0.36;100.00;101488.06;5061288;28;20055;-62
2023/01/26 08:10:26;;;;;;;25.45;14.25;;;;;;;-0.35;100.00;101494.09;5058629;28;20148;-61
2023/01/26 08:12:54;;;;;;;26.27;13.65;;;;;;;-0.46;100.00;101494.06;5059052;28;20115;-63
2023/01/26 08:15:21;;;;;;;22.95;12.57;;;;;;;-0.53;100.00;101495.81;5063823;28;20041;-62
2023/01/26 08:17:48;;;;;;;23.35;12.77;;;;;;;-0.47;100.00;101496.69;5059478;28;20106;-63
2023/01/26 08:20:15;;;;;;;21.35;12.43;;;;;;;-0.53;100.00;101487.19;5064045;28;20643;-62
2023/01/26 08:22:42;;;;;;;25.75;14.40;;;;;;;-0.51;100.00;101488.91;5060584;28;20533;-63
2023/01/26 08:25:10;;;;;;;22.52;13.10;;;;;;;-0.51;100.00;101490.63;5052690;28;20044;-63
2023/01/26 08:27:37;;;;;;;34.03;12.77;;;;;;;-0.54;100.00;101490.63;5047301;28;20142;-63
2023/01/26 08:30:05;;;;;;;28.08;14.38;;;;;;;-0.55;100.00;101494.06;5054156;28;20064;-63
2023/01/26 08:32:32;;;;;;;25.00;13.63;;;;;;;-0.54;100.00;101503.56;5052188;28;20644;-63
2023/01/26 08:34:59;;;;;;;19.65;13.05;;;;;;;-0.47;100.00;101489.78;5053258;28;20099;-63
2023/01/26 08:37:27;;;;;;;23.05;13.52;;;;;;;-0.38;100.00;101483.75;5052308;28;20074;-62
2023/01/26 08:39:54;;;;;;;22.77;13.82;;;;;;;-0.45;100.00;101475.13;5057376;28;20048;-63
2023/01/26 08:42:21;;;;;;;22.15;13.27;;;;;;;-0.41;100.00;101482.00;5065317;28;20530;-62
2023/01/26 08:44:49;;;;;;;21.75;13.70;;;;;;;-0.43;100.00;101483.75;5054940;28;20068;-62
2023/01/26 08:47:16;;;;;;;26.20;13.80;;;;;;;-0.44;100.00;101497.53;5061098;28;20398;-63
2023/01/26 08:49:43;;;;;;;23.77;12.63;;;;;;;-0.52;100.00;101486.31;5064439;28;20055;-63
2023/01/26 08:52:10;;;;;;;23.73;12.90;;;;;;;-0.56;100.00;101495.81;5058601;28;20055;-62
2023/01/26 08:54:37;;;;;;;23.55;13.85;;;;;;;-0.60;100.00;101494.06;5045418;28;20563;-63
2023/01/26 08:57:05;;;;;;;21.65;13.00;;;;;;;-0.69;100.00;101491.47;5057217;28;20049;-63
2023/01/26 08:59:32;;;;;;;20.45;12.90;;;;;;;-0.72;100.00;101496.66;5059997;28;20143;-61
2023/01/26 09:01:59;;;;;;;19.77;13.07;;;;;;;-0.74;100.00;101495.78;5059573;28;20055;-62
2023/01/26 09:04:26;;;;;;;21.90;13.40;;;;;;;-0.67;100.00;101499.25;5060675;28;20037;-63
2023/01/26 09:06:53;;;;;;;22.30;14.40;;;;;;;-0.78;100.00;101494.91;5061032;28;20083;-63
2023/01/26 09:09:20;;;;;;;21.20;13.80;;;;;;;-0.80;100.00;101499.22;5067106;28;20139;-63
2023/01/26 09:11:48;;;;;;;22.63;12.93;;;;;;;-0.78;100.00;101499.22;5068185;28;20064;-62
2023/01/26 09:14:15;;;;;;;22.75;14.00;;;;;;;-0.81;100.00;101500.09;5066831;28;20062;-63
2023/01/26 09:16:42;;;;;;;22.35;13.82;;;;;;;-0.79;100.00;101500.09;5063870;28;20053;-61
2023/01/26 09:19:09;;;;;;;21.60;13.38;;;;;;;-0.74;100.00;101500.94;5057880;28;20139;-62
2023/01/26 09:21:36;;;;;;;23.00;14.98;;;;;;;-0.76;100.00;101505.28;5065113;28;21326;-61
2023/01/26 09:24:04;;;;;;;22.35;13.55;;;;;;;-0.80;100.00;101509.56;5066075;28;20045;-61
2023/01/26 09:26:31;;;;;;;23.38;13.18;;;;;;;-0.79;100.00;101510.44;5062010;28;20053;-61
2023/01/26 09:28:58;;;;;;;18.85;13.07;;;;;;;-0.78;100.00;101513.00;5065789;28;20113;-61
2023/01/26 09:31:26;;;;;;;22.05;14.15;;;;;;;-0.72;100.00;101513.88;5064963;28;20048;-61
2023/01/26 09:33:53;;;;;;;22.20;13.50;;;;;;;-0.78;100.00;101517.31;5070676;28;20052;-62
2023/01/26 09:36:20;;;;;;;19.15;12.80;;;;;;;-0.74;100.00;101507.84;5057703;28;20095;-62
2023/01/26 09:38:47;;;;;;;18.55;12.38;;;;;;;-0.78;100.00;101497.50;5060423;28;20052;-61
2023/01/26 09:41:39;;;;;;;19.50;13.30;;;;;;;-0.69;100.00;101504.41;5065945;28;20139;-62
2023/01/26 09:44:15;;;;;;;22.85;15.15;;;;;;;-0.65;100.00;101506.13;5064947;28;20079;-62
2023/01/26 09:47:05;;;;;;;20.08;12.43;;;;;;;-0.72;100.00;101509.59;5066457;28;20044;-61
2023/01/26 09:50:31;;;;;;;20.20;13.18;;;;;;;-0.83;100.00;101506.09;5054103;28;20505;-62
2023/01/26 09:53:11;;;;;;;18.77;11.95;;;;;;;-0.84;100.00;101506.97;5033185;28;20038;-63
2023/01/26 09:55:39;;;;;;;18.90;12.23;;;;;;;-0.76;100.00;101494.94;5065457;28;20066;-63
2023/01/26 09:58:34;;;;;;;22.27;14.05;;;;;;;-0.71;100.00;101493.22;5040250;28;20052;-63
2023/01/26 10:01:02;;;;;;;23.98;14.25;;;;;;;-0.69;100.00;101507.00;5063264;28;20065;-63
2023/01/26 10:03:53;;;;;;;23.92;14.77;;;;;;;-0.69;100.00;101507.00;5068860;28;20124;-61
2023/01/26 10:06:27;;;;;;;22.27;13.43;;;;;;;-0.71;100.00;101498.38;5061842;28;20045;-63
2023/01/26 10:08:57;;;;;;;21.25;13.60;;;;;;;-0.71;100.00;101492.34;5065174;28;20493;-62
2023/01/26 10:11:40;;;;;;;21.52;13.32;;;;;;;-0.60;100.00;101490.63;5060222;28;20040;-62
2023/01/26 10:14:20;;;;;;;19.67;13.27;;;;;;;-0.67;100.00;101494.09;5067073;28;20128;-61
2023/01/26 10:16:48;;;;;;;22.17;14.80;;;;;;;-0.72;100.00;101481.16;5065953;28;20083;-63
2023/01/26 10:19:25;;;;;;;23.92;14.52;;;;;;;-0.78;100.00;101479.41;5063161;28;20185;-63
2023/01/26 10:21:54;;;;;;;20.98;13.52;;;;;;;-0.81;100.00;101475.94;5062784;28;20052;-63
2023/01/26 10:24:22;;;;;;;27.10;14.43;;;;;;;-0.79;100.00;101477.69;5070795;28;20044;-61
2023/01/26 10:26:52;;;;;;;23.23;14.02;;;;;;;-0.74;100.00;101477.69;5063142;28;20140;-62
2023/01/26 10:29:20;;;;;;;21.70;14.15;;;;;;;-0.70;100.00;101479.41;5060678;28;20129;-61
2023/01/26 10:31:47;;;;;;;21.55;13.93;;;;;;;-0.69;100.00;101478.56;5063785;28;20060;-63
2023/01/26 10:34:16;;;;;;;21.42;13.65;;;;;;;-0.67;100.00;101474.25;5067873;28;20047;-62
2023/01/26 10:36:45;;;;;;;22.13;14.68;;;;;;;-0.69;100.00;101468.22;5068748;28;20057;-61
2023/01/26 10:39:14;;;;;;;24.35;13.35;;;;;;;-0.67;100.00;101466.50;5064417;28;20056;-62
2023/01/26 10:42:02;;;;;;;23.40;14.25;;;;;;;-0.64;100.00;101461.31;5058637;28;20060;-60
2023/01/26 10:44:34;;;;;;;25.08;14.23;;;;;;;-0.70;100.00;101450.97;5062171;28;20041;-62
2023/01/26 10:47:16;;;;;;;25.30;14.95;;;;;;;-0.71;100.00;101448.41;5056378;28;20064;-62
2023/01/26 10:49:43;;;;;;;23.60;13.50;;;;;;;-0.66;100.00;101439.78;5055492;28;20477;-61
2023/01/26 10:52:17;;;;;;;24.17;14.90;;;;;;;-0.74;100.00;101446.66;5064474;28;20067;-61
2023/01/26 10:54:45;;;;;;;22.25;13.90;;;;;;;-0.80;100.00;101433.75;5064113;28;20048;-61
2023/01/26 10:57:27;;;;;;;23.83;15.10;;;;;;;-0.87;100.00;101439.75;5069387;28;20278;-62
2023/01/26 10:59:59;;;;;;;23.45;12.98;;;;;;;-0.93;100.00;101427.69;5064599;28;20571;-61
2023/01/26 11:02:29;;;;;;;21.80;13.68;;;;;;;-0.87;100.00;101429.41;5065559;28;20151;-61
2023/01/26 11:05:02;;;;;;;24.13;14.63;;;;;;;-0.90;100.00;101435.47;5066142;28;20056;-61
2023/01/26 11:07:41;;;;;;;26.58;15.52;;;;;;;-0.87;100.00;101425.09;5062824;28;20540;-61
2023/01/26 11:10:24;;;;;;;21.20;12.95;;;;;;;-0.83;100.00;101437.16;5061500;28;20045;-62
2023/01/26 11:13:05;;;;;;;24.20;14.23;;;;;;;-0.82;100.00;101432.88;5064925;28;20083;-62
2023/01/26 11:15:38;;;;;;;24.33;14.80;;;;;;;-0.81;100.00;101438.06;5047469;28;20051;-61
2023/01/26 11:18:23;;;;;;;24.15;15.02;;;;;;;-0.79;100.00;101420.81;5053738;28;20563;-62
2023/01/26 11:21:07;;;;;;;26.50;14.45;;;;;;;-0.77;100.00;101424.28;5056561;28;20077;-62
2023/01/26 11:23:56;;;;;;;22.98;13.63;;;;;;;-0.75;100.00;101426.00;5065462;28;20124;-61
2023/01/26 11:26:26;;;;;;;22.42;14.38;;;;;;;-0.77;100.00;101421.69;5066911;28;20052;-62
2023/01/26 11:29:16;;;;;;;27.45;14.57;;;;;;;-0.75;100.00;101420.81;5075671;28;20112;-62
2023/01/26 11:32:02;;;;;;;24.20;15.63;;;;;;;-0.68;100.00;101425.97;5060548;28;20060;-62
2023/01/26 11:34:42;;;;;;;22.05;14.10;;;;;;;-0.69;100.00;101419.06;5080292;22;20048;-60
2023/01/26 11:37:31;;;;;;;23.02;14.88;;;;;;;-0.65;100.00;101419.94;5059517;28;20087;-59
2023/01/26 11:40:39;;;;;;;22.38;14.13;;;;;;;-0.66;100.00;101413.06;5043539;28;20059;-59
2023/01/26 11:43:34;;;;;;;24.20;14.70;;;;;;;-0.70;100.00;101411.34;5045194;28;20052;-60
2023/01/26 11:46:19;;;;;;;20.67;13.50;;;;;;;-0.64;100.00;101406.16;5046570;28;20085;-58
2023/01/26 11:49:13;;;;;;;21.63;14.02;;;;;;;-0.58;100.00;101401.00;5041580;28;20136;-60
2023/01/26 11:55:41;;;;;;;15.52;10.60;;;;;;;-0.56;100.00;101386.31;5040703;28;20045;-60
2023/01/26 11:58:29;;;;;;;18.27;11.80;;;;;;;-0.58;100.00;101393.22;5018839;28;20146;-61
2023/01/26 12:00:59;;;;;;;18.17;11.32;;;;;;;-0.62;100.00;101387.19;5028048;28;20140;-61
2023/01/26 12:03:34;;;;;;;15.95;11.25;;;;;;;-0.63;100.00;101382.00;5045375;28;20543;-58
2023/01/26 12:06:06;;;;;;;15.07;10.38;;;;;;;-0.52;100.00;101375.13;5044221;28;20702;-60
2023/01/26 12:09:17;;;;;;;15.27;10.45;;;;;;;-0.52;100.00;101373.38;5044340;28;20723;-58
2023/01/26 12:12:04;;;;;;;16.13;11.25;;;;;;;-0.50;100.00;101370.78;5038473;28;20064;-62